createdAt,value
2018-03-07T00:01:13.548Z,8.70
2018-03-07T00:03:42.138Z,8.80
2018-03-07T00:06:09.750Z,8.80
2018-03-07T00:08:36.795Z,8.80
2018-03-07T00:11:03.687Z,8.70
2018-03-07T00:13:30.611Z,8.80
2018-03-07T00:15:58.236Z,8.80
2018-03-07T00:18:25.963Z,8.70
2018-03-07T00:21:08.543Z,8.70
2018-03-07T00:23:36.587Z,8.60
2018-03-07T00:26:04.467Z,8.60
2018-03-07T00:28:31.505Z,8.70
2018-03-07T00:30:58.466Z,8.70
2018-03-07T00:33:26.992Z,8.80
2018-03-07T00:35:53.923Z,8.80
2018-03-07T00:38:26.513Z,8.50
2018-03-07T00:40:53.799Z,8.50
2018-03-07T00:43:20.674Z,8.50
2018-03-07T00:45:47.532Z,8.50
2018-03-07T00:48:27.813Z,8.60
2018-03-07T00:50:55.416Z,8.70
2018-03-07T00:53:22.834Z,8.70
2018-03-07T00:55:49.757Z,8.60
2018-03-07T00:58:18.944Z,8.70
2018-03-07T01:00:46.896Z,8.70
2018-03-07T01:03:13.831Z,8.70
2018-03-07T01:05:42.522Z,8.70
2018-03-07T01:08:09.504Z,8.80
2018-03-07T01:10:38.314Z,8.70
2018-03-07T01:13:05.930Z,8.60
2018-03-07T01:15:32.791Z,8.50
2018-03-07T01:17:59.784Z,8.60
2018-03-07T01:20:26.671Z,8.30
2018-03-07T01:22:53.615Z,8.40
2018-03-07T01:25:20.544Z,8.40
2018-03-07T01:27:47.567Z,8.40
2018-03-07T01:30:14.431Z,8.20
2018-03-07T01:32:41.323Z,8.40
2018-03-07T01:35:09.005Z,8.30
2018-03-07T01:37:35.876Z,8.30
2018-03-07T01:40:02.964Z,8.30
2018-03-07T01:42:29.944Z,8.30
2018-03-07T01:44:56.822Z,8.30
2018-03-07T01:47:23.695Z,8.30
2018-03-07T01:49:50.624Z,8.30
2018-03-07T01:52:17.581Z,8.20
2018-03-07T01:54:44.454Z,8.20
2018-03-07T01:57:12.074Z,8.20
2018-03-07T01:59:38.995Z,8.10
2018-03-07T02:02:05.968Z,8.10
2018-03-07T02:04:32.898Z,8.10
2018-03-07T02:06:59.764Z,8.10
2018-03-07T02:09:26.745Z,8.10
2018-03-07T02:11:53.683Z,8.00
2018-03-07T02:14:21.315Z,8.10
2018-03-07T02:16:48.187Z,8.10
2018-03-07T02:19:15.135Z,8.00
2018-03-07T02:21:42.758Z,8.20
2018-03-07T02:24:09.699Z,8.20
2018-03-07T02:26:36.658Z,8.00
2018-03-07T02:29:03.620Z,8.10
2018-03-07T02:31:30.495Z,8.00
2018-03-07T02:33:58.228Z,8.10
2018-03-07T02:36:31.979Z,8.10
2018-03-07T02:38:58.918Z,8.10
2018-03-07T02:41:25.863Z,8.10
2018-03-07T02:43:53.547Z,8.10
2018-03-07T02:46:20.422Z,8.10
2018-03-07T02:48:47.302Z,8.00
2018-03-07T02:51:14.999Z,8.10
2018-03-07T02:53:41.859Z,8.10
2018-03-07T02:56:08.755Z,8.10
2018-03-07T02:58:35.677Z,8.00
2018-03-07T03:01:02.620Z,8.00
2018-03-07T03:03:29.478Z,8.00
2018-03-07T03:05:56.415Z,7.90
2018-03-07T03:08:23.284Z,8.00
2018-03-07T03:10:50.954Z,8.10
2018-03-07T03:13:18.561Z,8.00
2018-03-07T03:15:45.557Z,8.00
2018-03-07T03:18:13.241Z,7.90
2018-03-07T03:20:40.111Z,7.90
2018-03-07T03:23:06.973Z,7.90
2018-03-07T03:25:33.920Z,7.70
2018-03-07T03:28:00.779Z,7.70
2018-03-07T03:30:27.712Z,7.50
2018-03-07T03:32:54.699Z,7.50
2018-03-07T03:35:22.377Z,7.60
2018-03-07T03:37:49.265Z,7.50
2018-03-07T03:40:16.134Z,7.50
2018-03-07T03:42:43.064Z,7.50
2018-03-07T03:45:09.988Z,7.40
2018-03-07T03:47:36.915Z,7.30
2018-03-07T03:50:03.885Z,7.10
2018-03-07T03:52:30.828Z,7.10
2018-03-07T03:54:57.687Z,7.00
2018-03-07T03:57:24.622Z,6.80
2018-03-07T03:59:51.493Z,6.70
2018-03-07T04:02:18.424Z,6.70
2018-03-07T04:04:45.295Z,6.70
2018-03-07T04:07:12.155Z,6.70
2018-03-07T04:09:39.076Z,6.60
2018-03-07T04:12:06.004Z,6.50
2018-03-07T04:14:32.942Z,6.50
2018-03-07T04:16:59.862Z,6.50
2018-03-07T04:19:26.784Z,6.50
2018-03-07T04:21:54.381Z,6.40
2018-03-07T04:24:21.317Z,6.40
2018-03-07T04:26:48.175Z,6.30
2018-03-07T04:29:15.196Z,6.30
2018-03-07T04:31:42.055Z,6.30
2018-03-07T04:34:08.910Z,6.30
2018-03-07T04:36:35.899Z,6.20
2018-03-07T04:39:02.929Z,6.10
2018-03-07T04:41:29.855Z,6.20
2018-03-07T04:43:56.702Z,6.20
2018-03-07T04:46:23.658Z,6.20
2018-03-07T04:48:50.575Z,6.10
2018-03-07T04:51:17.435Z,6.10
2018-03-07T04:53:44.354Z,6.10
2018-03-07T04:56:11.303Z,6.10
2018-03-07T04:58:38.230Z,6.10
2018-03-07T05:01:05.866Z,6.00
2018-03-07T05:03:32.779Z,6.00
2018-03-07T05:05:59.755Z,6.10
2018-03-07T05:08:27.448Z,6.10
2018-03-07T05:10:55.125Z,6.10
2018-03-07T05:13:21.991Z,6.00
2018-03-07T05:15:48.980Z,6.10
2018-03-07T05:18:15.836Z,6.00
2018-03-07T05:20:42.767Z,5.90
2018-03-07T05:23:09.632Z,5.80
2018-03-07T05:25:37.316Z,5.80
2018-03-07T05:28:04.307Z,5.70
2018-03-07T05:30:31.175Z,5.70
2018-03-07T05:32:58.097Z,5.60
2018-03-07T05:35:25.028Z,5.70
2018-03-07T05:37:52.503Z,5.60
2018-03-07T05:40:22.767Z,5.70
2018-03-07T05:42:49.639Z,5.70
2018-03-07T05:45:16.613Z,5.70
2018-03-07T05:47:43.504Z,5.60
2018-03-07T05:50:11.176Z,5.60
2018-03-07T05:52:38.784Z,5.60
2018-03-07T05:55:05.740Z,5.60
2018-03-07T05:57:32.607Z,5.50
2018-03-07T05:59:59.503Z,5.60
2018-03-07T06:02:26.440Z,5.60
2018-03-07T06:05:07.607Z,5.60
2018-03-07T06:07:36.896Z,5.60
2018-03-07T06:10:04.956Z,5.70
2018-03-07T06:12:31.899Z,5.70
2018-03-07T06:14:58.883Z,5.80
2018-03-07T06:17:25.741Z,5.90
2018-03-07T06:19:52.680Z,5.90
2018-03-07T06:22:19.564Z,6.00
2018-03-07T06:24:46.539Z,6.10
2018-03-07T06:27:14.153Z,6.40
2018-03-07T06:29:41.102Z,6.40
2018-03-07T06:32:08.035Z,6.50
2018-03-07T06:34:34.887Z,6.70
2018-03-07T06:37:01.829Z,6.80
2018-03-07T06:39:28.701Z,6.80
2018-03-07T06:41:55.625Z,6.90
2018-03-07T06:44:22.556Z,6.90
2018-03-07T06:46:49.439Z,6.90
2018-03-07T06:49:16.365Z,6.90
2018-03-07T06:51:43.284Z,7.00
2018-03-07T06:54:10.232Z,7.00
2018-03-07T06:56:37.101Z,7.10
2018-03-07T06:59:03.970Z,7.10
2018-03-07T07:01:30.909Z,7.20
2018-03-07T07:03:57.783Z,7.10
2018-03-07T07:06:25.453Z,7.40
2018-03-07T07:08:53.069Z,7.50
2018-03-07T07:11:19.993Z,7.40
2018-03-07T07:13:46.929Z,7.50
2018-03-07T07:16:13.876Z,7.50
2018-03-07T07:18:40.825Z,7.50
2018-03-07T07:21:07.704Z,7.50
2018-03-07T07:23:34.626Z,7.50
2018-03-07T07:26:01.575Z,7.60
2018-03-07T07:28:28.436Z,7.70
2018-03-07T07:30:55.307Z,7.80
2018-03-07T07:33:22.237Z,7.90
2018-03-07T07:35:49.177Z,7.90
2018-03-07T07:38:16.056Z,8.00
2018-03-07T07:40:43.779Z,8.10
2018-03-07T07:43:10.726Z,8.10
2018-03-07T07:45:41.007Z,8.10
2018-03-07T07:48:08.644Z,8.20
2018-03-07T07:50:35.652Z,8.20
2018-03-07T07:53:02.547Z,8.10
2018-03-07T07:55:30.287Z,8.70
2018-03-07T07:57:57.171Z,8.70
2018-03-07T08:00:24.117Z,8.80
2018-03-07T08:02:50.976Z,8.80
2018-03-07T08:05:17.828Z,8.80
2018-03-07T08:07:44.769Z,8.80
2018-03-07T08:10:11.666Z,8.80
2018-03-07T08:12:38.603Z,8.80
2018-03-07T08:15:06.524Z,8.70
2018-03-07T08:17:37.986Z,8.60
2018-03-07T08:20:05.322Z,8.50
2018-03-07T08:22:32.208Z,8.50
2018-03-07T08:24:59.151Z,8.40
2018-03-07T08:27:26.103Z,8.30
2018-03-07T08:29:52.969Z,8.30
2018-03-07T08:32:19.899Z,8.30
2018-03-07T08:34:46.761Z,8.10
2018-03-07T08:37:13.702Z,8.20
2018-03-07T08:39:40.660Z,8.10
2018-03-07T08:42:07.519Z,8.10
2018-03-07T08:44:35.179Z,8.30
2018-03-07T08:47:02.092Z,8.30
2018-03-07T08:49:29.084Z,9.00
2018-03-07T08:51:56.085Z,9.20
2018-03-07T08:54:23.018Z,9.30
2018-03-07T08:56:49.879Z,9.60
2018-03-07T08:59:16.809Z,10.00
2018-03-07T09:01:43.751Z,10.80
2018-03-07T09:04:10.631Z,13.20
2018-03-07T09:06:37.568Z,13.10
2018-03-07T09:09:04.520Z,12.70
2018-03-07T09:11:31.372Z,12.60
2018-03-07T09:13:58.303Z,11.90
2018-03-07T09:16:25.155Z,11.70
2018-03-07T09:18:52.078Z,11.30
2018-03-07T09:21:18.948Z,10.70
2018-03-07T09:23:45.812Z,10.80
2018-03-07T09:26:13.512Z,11.60
2018-03-07T09:28:40.379Z,11.50
2018-03-07T09:31:07.253Z,12.20
2018-03-07T09:33:34.210Z,13.30
2018-03-07T09:36:01.107Z,15.00
2018-03-07T09:38:28.083Z,15.90
2018-03-07T09:40:54.974Z,16.30
2018-03-07T09:43:21.902Z,18.90
2018-03-07T09:45:49.496Z,17.70
2018-03-07T09:48:16.431Z,17.70
2018-03-07T09:50:43.294Z,16.40
2018-03-07T09:53:10.149Z,14.70
2018-03-07T09:55:37.084Z,14.10
2018-03-07T09:58:04.021Z,14.10
2018-03-07T10:00:30.884Z,14.00
2018-03-07T10:02:57.883Z,13.70
2018-03-07T10:05:25.520Z,12.80
2018-03-07T10:07:52.445Z,12.80
2018-03-07T10:10:19.304Z,12.70
2018-03-07T10:12:46.230Z,13.20
2018-03-07T10:15:13.107Z,13.50
2018-03-07T10:17:40.788Z,14.50
2018-03-07T10:20:08.390Z,15.10
2018-03-07T10:22:35.398Z,15.00
2018-03-07T10:25:02.272Z,14.50
2018-03-07T10:27:29.202Z,14.20
2018-03-07T10:29:56.078Z,14.70
2018-03-07T10:32:22.954Z,14.20
2018-03-07T10:34:49.867Z,13.60
2018-03-07T10:37:16.740Z,12.90
2018-03-07T10:39:43.666Z,12.80
2018-03-07T10:42:10.528Z,12.70
2018-03-07T10:44:37.460Z,12.80
2018-03-07T10:47:04.351Z,12.70
2018-03-07T10:49:31.225Z,13.50
2018-03-07T10:51:58.171Z,13.90
2018-03-07T10:54:25.041Z,13.80
2018-03-07T10:56:51.911Z,13.50
2018-03-07T10:59:19.602Z,13.20
2018-03-07T11:01:47.562Z,13.20
2018-03-07T11:04:14.450Z,12.80
2018-03-07T11:06:41.389Z,12.70
2018-03-07T11:09:08.324Z,12.30
2018-03-07T11:11:35.252Z,12.00
2018-03-07T11:14:02.120Z,12.00
2018-03-07T11:16:29.094Z,12.10
2018-03-07T11:18:55.956Z,12.30
2018-03-07T11:21:22.815Z,12.30
2018-03-07T11:23:50.563Z,12.60
2018-03-07T11:26:17.496Z,12.60
2018-03-07T11:28:44.410Z,12.50
2018-03-07T11:31:11.262Z,12.30
2018-03-07T11:33:38.214Z,12.00
2018-03-07T11:36:05.091Z,12.30
2018-03-07T11:38:32.024Z,12.30
2018-03-07T11:40:58.948Z,12.30
2018-03-07T11:43:25.895Z,12.40
2018-03-07T11:45:52.841Z,12.20
2018-03-07T11:48:19.775Z,12.30
2018-03-07T11:50:46.643Z,12.40
2018-03-07T11:53:13.512Z,12.60
2018-03-07T11:55:40.471Z,12.90
2018-03-07T11:58:08.116Z,13.00
2018-03-07T12:00:35.094Z,12.90
2018-03-07T12:03:02.049Z,12.50
2018-03-07T12:05:28.927Z,12.10
2018-03-07T12:07:55.864Z,11.80
2018-03-07T12:10:22.819Z,11.70
2018-03-07T12:12:49.731Z,11.80
2018-03-07T12:15:16.594Z,12.00
2018-03-07T12:17:58.484Z,12.50
2018-03-07T12:20:39.187Z,12.30
2018-03-07T12:23:20.930Z,12.50
2018-03-07T12:28:36.276Z,12.70
2018-03-07T12:31:03.207Z,12.50
2018-03-07T12:33:30.112Z,12.50
2018-03-07T12:35:57.800Z,11.90
2018-03-07T12:38:37.506Z,11.90
2018-03-07T12:41:08.023Z,12.50
2018-03-07T12:43:34.969Z,12.40
2018-03-07T12:46:01.828Z,12.30
2018-03-07T12:48:29.460Z,12.20
2018-03-07T12:50:56.437Z,12.10
2018-03-07T12:53:23.303Z,11.90
2018-03-07T12:55:50.232Z,12.20
2018-03-07T12:58:17.099Z,12.10
2018-03-07T13:00:44.056Z,11.80
2018-03-07T13:03:10.915Z,11.80
2018-03-07T13:05:37.799Z,11.80
2018-03-07T13:08:04.736Z,12.20
2018-03-07T13:10:43.265Z,12.30
2018-03-07T13:13:19.108Z,12.40
2018-03-07T13:15:49.465Z,12.50
2018-03-07T13:18:16.620Z,13.00
2018-03-07T13:20:51.118Z,12.80
2018-03-07T13:23:32.155Z,12.60
2018-03-07T13:26:14.423Z,12.60
2018-03-07T13:28:56.423Z,12.40
2018-03-07T13:34:13.125Z,12.20
2018-03-07T13:36:40.093Z,11.80
2018-03-07T13:39:13.437Z,11.50
2018-03-07T13:41:50.909Z,11.50
2018-03-07T13:44:31.212Z,11.40
2018-03-07T13:47:15.341Z,11.50
2018-03-07T13:49:46.239Z,11.30
2018-03-07T13:52:24.406Z,11.70
2018-03-07T13:55:08.771Z,11.40
2018-03-07T13:57:48.066Z,11.50
2018-03-07T14:00:26.813Z,11.10
2018-03-07T14:02:57.138Z,11.00
2018-03-07T14:05:24.193Z,11.10
2018-03-07T14:07:55.280Z,11.10
2018-03-07T14:10:23.712Z,11.40
2018-03-07T14:12:50.581Z,11.70
2018-03-07T14:15:22.850Z,12.00
2018-03-07T14:18:01.582Z,12.10
2018-03-07T14:20:29.158Z,12.20
2018-03-07T14:22:56.044Z,12.30
2018-03-07T14:25:25.546Z,12.00
2018-03-07T14:27:52.568Z,11.90
2018-03-07T14:30:19.547Z,11.90
2018-03-07T14:32:49.202Z,12.00
2018-03-07T14:35:16.131Z,11.90
2018-03-07T14:37:43.002Z,12.10
2018-03-07T14:40:10.000Z,12.10
2018-03-07T14:42:36.964Z,11.90
2018-03-07T14:45:03.996Z,12.00
2018-03-07T14:47:30.847Z,11.70
2018-03-07T14:49:57.743Z,11.60
2018-03-07T14:52:24.691Z,11.80
2018-03-07T14:54:51.552Z,11.90
2018-03-07T14:57:18.479Z,11.90
2018-03-07T14:59:45.354Z,12.10
2018-03-07T15:02:12.323Z,11.60
2018-03-07T15:04:39.243Z,11.70
2018-03-07T15:07:06.128Z,12.00
2018-03-07T15:09:33.071Z,12.00
2018-03-07T15:12:00.030Z,12.10
2018-03-07T15:14:27.672Z,11.70
2018-03-07T15:16:54.632Z,11.70
2018-03-07T15:19:21.545Z,12.10
2018-03-07T15:21:48.499Z,12.20
2018-03-07T15:24:15.504Z,12.20
2018-03-07T15:26:42.407Z,12.10
2018-03-07T15:29:09.407Z,12.20
2018-03-07T15:31:44.860Z,12.00
2018-03-07T15:34:21.973Z,12.00
2018-03-07T15:37:01.848Z,11.80
2018-03-07T15:39:29.668Z,11.70
2018-03-07T15:42:07.547Z,11.60
2018-03-07T15:44:38.926Z,11.50
2018-03-07T15:47:05.999Z,11.40
2018-03-07T15:49:38.859Z,11.50
2018-03-07T15:52:14.638Z,11.30
2018-03-07T15:54:48.050Z,11.20
2018-03-07T15:57:26.194Z,11.30
2018-03-07T16:00:05.596Z,11.30
2018-03-07T16:02:48.394Z,11.30
2018-03-07T16:05:28.945Z,11.40
2018-03-07T16:07:56.703Z,11.10
2018-03-07T16:10:32.176Z,11.40
2018-03-07T16:13:13.395Z,11.30
2018-03-07T16:15:54.966Z,11.20
2018-03-07T16:18:35.677Z,11.20
2018-03-07T16:21:03.480Z,11.10
2018-03-07T16:23:44.408Z,10.80
2018-03-07T16:26:12.173Z,10.80
2018-03-07T16:28:39.184Z,10.70
2018-03-07T16:31:06.076Z,10.60
2018-03-07T16:33:33.013Z,10.50
2018-03-07T16:35:59.996Z,10.50
2018-03-07T16:38:28.268Z,10.50
2018-03-07T16:40:55.224Z,10.30
2018-03-07T16:43:30.972Z,10.30
2018-03-07T16:45:57.853Z,10.10
2018-03-07T16:48:25.635Z,9.70
2018-03-07T16:50:57.125Z,9.70
2018-03-07T16:53:26.540Z,9.50
2018-03-07T16:55:53.399Z,9.40
2018-03-07T16:58:20.330Z,9.40
2018-03-07T17:00:51.894Z,9.40
2018-03-07T17:03:18.853Z,9.30
2018-03-07T17:05:59.206Z,9.10
2018-03-07T17:08:26.912Z,9.10
2018-03-07T17:10:53.848Z,9.10
2018-03-07T17:13:20.775Z,9.10
2018-03-07T17:15:47.719Z,9.20
2018-03-07T17:18:23.348Z,9.20
2018-03-07T17:21:01.097Z,9.10
2018-03-07T17:23:28.552Z,9.10
2018-03-07T17:25:55.576Z,8.90
2018-03-07T17:28:22.519Z,9.10
2018-03-07T17:30:49.515Z,9.00
2018-03-07T17:33:16.467Z,9.00
2018-03-07T17:35:43.355Z,9.00
2018-03-07T17:38:10.215Z,8.90
2018-03-07T17:40:37.883Z,8.80
2018-03-07T17:43:05.559Z,8.90
2018-03-07T17:45:33.223Z,8.90
2018-03-07T17:48:00.080Z,8.80
2018-03-07T17:50:27.019Z,8.80
2018-03-07T17:52:53.883Z,8.90
2018-03-07T17:55:20.815Z,8.80
2018-03-07T17:57:47.819Z,9.00
2018-03-07T18:00:14.693Z,8.90
2018-03-07T18:02:41.572Z,9.00
2018-03-07T18:05:08.515Z,8.90
2018-03-07T18:07:35.375Z,8.80
2018-03-07T18:10:02.314Z,8.80
2018-03-07T18:12:29.196Z,8.80
2018-03-07T18:14:56.143Z,8.80
2018-03-07T18:17:23.155Z,8.80
2018-03-07T18:19:50.040Z,8.80
2018-03-07T18:22:17.080Z,8.90
2018-03-07T18:24:44.700Z,8.90
2018-03-07T18:27:11.628Z,8.90
2018-03-07T18:29:38.507Z,8.90
2018-03-07T18:32:05.499Z,8.70
2018-03-07T18:34:33.286Z,8.80
2018-03-07T18:37:00.230Z,8.80
2018-03-07T18:39:27.085Z,8.80
2018-03-07T18:41:55.323Z,8.70
2018-03-07T18:44:27.709Z,8.70
2018-03-07T18:46:56.641Z,8.70
2018-03-07T18:49:24.369Z,8.60
2018-03-07T18:51:51.368Z,8.60
2018-03-07T18:54:18.304Z,8.60
2018-03-07T18:56:48.757Z,8.60
2018-03-07T18:59:17.166Z,8.70
2018-03-07T19:01:44.241Z,8.40
2018-03-07T19:04:11.136Z,8.30
2018-03-07T19:06:38.063Z,8.40
2018-03-07T19:09:05.058Z,8.40
2018-03-07T19:11:31.952Z,8.40
2018-03-07T19:13:58.887Z,8.50
2018-03-07T19:16:25.752Z,8.30
2018-03-07T19:18:52.700Z,8.30
2018-03-07T19:21:22.722Z,8.30
2018-03-07T19:23:50.539Z,8.50
2018-03-07T19:26:18.098Z,8.50
2018-03-07T19:28:58.771Z,8.50
2018-03-07T19:31:40.135Z,8.50
2018-03-07T19:34:22.987Z,8.40
2018-03-07T19:36:56.113Z,8.40
2018-03-07T19:39:23.056Z,8.40
2018-03-07T19:41:49.932Z,8.30
2018-03-07T19:44:17.630Z,8.20
2018-03-07T19:46:44.524Z,8.20
2018-03-07T19:49:12.905Z,8.40
2018-03-07T19:54:35.136Z,8.10
2018-03-07T19:57:07.173Z,8.10
2018-03-07T19:59:35.540Z,7.90
2018-03-07T20:02:16.972Z,7.90
2018-03-07T20:04:58.201Z,7.90
2018-03-07T20:07:40.182Z,7.90
2018-03-07T20:10:20.446Z,7.80
2018-03-07T20:13:01.912Z,7.70
2018-03-07T20:15:42.228Z,7.70
2018-03-07T20:18:09.716Z,7.90
2018-03-07T20:20:37.854Z,7.90
2018-03-07T20:23:14.331Z,8.00
2018-03-07T20:28:38.647Z,8.10
2018-03-07T20:31:21.071Z,8.10
2018-03-07T20:34:01.089Z,8.10
2018-03-07T20:36:28.652Z,8.10
2018-03-07T20:38:56.790Z,8.10
2018-03-07T20:41:36.070Z,8.00
2018-03-07T20:44:16.742Z,8.00
2018-03-07T20:46:57.483Z,8.00
2018-03-07T20:49:37.093Z,7.90
2018-03-07T20:52:18.725Z,7.90
2018-03-07T20:55:00.221Z,8.00
2018-03-07T20:57:40.140Z,8.00
2018-03-07T21:03:04.319Z,7.80
2018-03-07T21:05:43.812Z,7.90
2018-03-07T21:08:24.244Z,7.70
2018-03-07T21:13:49.389Z,7.80
2018-03-07T21:16:30.280Z,7.80
2018-03-07T21:19:08.716Z,7.80
2018-03-07T21:21:35.680Z,7.90
2018-03-07T21:24:03.083Z,8.00
2018-03-07T21:26:33.794Z,7.80
2018-03-07T21:29:01.041Z,8.00
2018-03-07T21:31:43.309Z,8.00
2018-03-07T21:34:25.632Z,8.00
2018-03-07T21:37:04.882Z,8.00
2018-03-07T21:39:46.125Z,8.00
2018-03-07T21:42:27.039Z,7.80
2018-03-07T21:44:55.654Z,7.80
2018-03-07T21:47:22.707Z,7.90
2018-03-07T21:49:50.588Z,7.80
2018-03-07T21:52:18.988Z,7.90
2018-03-07T21:54:45.963Z,7.80
2018-03-07T21:57:21.003Z,7.70
2018-03-07T22:00:01.822Z,7.80
2018-03-07T22:02:42.041Z,7.70
2018-03-07T22:05:24.061Z,7.60
2018-03-07T22:08:05.619Z,7.60
2018-03-07T22:10:33.412Z,7.60
2018-03-07T22:13:00.423Z,7.50
2018-03-07T22:15:27.288Z,7.70
2018-03-07T22:17:54.200Z,7.70
2018-03-07T22:20:21.147Z,7.60
2018-03-07T22:22:48.123Z,7.70
2018-03-07T22:25:15.017Z,7.70
2018-03-07T22:27:41.979Z,7.60
2018-03-07T22:30:09.658Z,7.30
2018-03-07T22:32:36.654Z,7.30
2018-03-07T22:35:03.552Z,7.50
2018-03-07T22:37:30.447Z,7.50
2018-03-07T22:39:57.395Z,7.50
2018-03-07T22:42:24.274Z,7.50
2018-03-07T22:44:51.255Z,7.50
2018-03-07T22:47:18.126Z,7.40
2018-03-07T22:49:47.265Z,7.40
2018-03-07T22:52:14.504Z,7.50
2018-03-07T22:54:42.663Z,7.40
2018-03-07T22:57:12.262Z,7.50
2018-03-07T22:59:39.673Z,7.50
2018-03-07T23:02:07.806Z,7.40
2018-03-07T23:04:37.631Z,7.40
2018-03-07T23:07:09.029Z,7.40
2018-03-07T23:09:36.444Z,7.40
2018-03-07T23:12:03.540Z,7.30
2018-03-07T23:14:31.983Z,7.30
2018-03-07T23:16:58.933Z,7.30
2018-03-07T23:19:26.257Z,7.20
2018-03-07T23:21:54.484Z,7.10
2018-03-07T23:24:22.920Z,7.20
2018-03-07T23:26:50.964Z,7.20
2018-03-07T23:29:17.896Z,7.10
2018-03-07T23:31:45.576Z,7.10
2018-03-07T23:34:13.424Z,7.00
2018-03-07T23:36:41.440Z,7.00
2018-03-07T23:39:09.759Z,6.70
2018-03-07T23:41:36.619Z,7.10
2018-03-07T23:44:03.516Z,6.80
2018-03-07T23:46:31.892Z,7.00
2018-03-07T23:49:00.328Z,7.00
2018-03-07T23:51:28.760Z,6.90
2018-03-07T23:53:55.757Z,6.90
2018-03-07T23:56:22.879Z,7.00
2018-03-07T23:58:51.344Z,7.10
